createdAt,value
2022-09-27T00:01:09.786Z,99873.94
2022-09-27T00:03:38.526Z,99887.56
2022-09-27T00:06:28.433Z,99882.66
2022-09-27T00:09:01.442Z,99894.03
2022-09-27T00:11:40.539Z,99889.97
2022-09-27T00:14:08.780Z,99882.88
2022-09-27T00:16:38.951Z,99885.50
2022-09-27T00:19:10.522Z,99891.81
2022-09-27T00:21:38.097Z,99889.97
2022-09-27T00:24:05.543Z,99896.91
2022-09-27T00:26:33.253Z,99893.44
2022-09-27T00:29:00.575Z,99888.97
2022-09-27T00:31:30.699Z,99888.34
2022-09-27T00:34:00.426Z,99898.72
2022-09-27T00:36:29.013Z,99895.63
2022-09-27T00:38:57.493Z,99896.69
2022-09-27T00:41:31.273Z,99890.34
2022-09-27T00:44:01.643Z,99895.63
2022-09-27T00:46:37.953Z,99887.72
2022-09-27T00:49:31.568Z,99892.00
2022-09-27T00:52:08.051Z,99897.28
2022-09-27T00:54:40.559Z,99893.16
2022-09-27T00:57:08.997Z,99895.63
2022-09-27T00:59:44.162Z,99890.91
2022-09-27T01:02:12.219Z,99892.94
2022-09-27T01:04:41.494Z,99898.63
2022-09-27T01:07:09.057Z,99895.53
2022-09-27T01:09:39.820Z,99897.34
2022-09-27T01:12:18.711Z,99893.28
2022-09-27T01:15:12.940Z,99890.22
2022-09-27T01:18:16.760Z,99894.03
2022-09-27T01:20:59.289Z,99894.00
2022-09-27T01:23:49.344Z,99880.19
2022-09-27T01:26:43.881Z,99873.91
2022-09-27T01:29:42.013Z,99880.59
2022-09-27T01:32:33.316Z,99887.28
2022-09-27T01:35:22.592Z,99892.75
2022-09-27T01:38:09.615Z,99887.91
2022-09-27T01:41:14.160Z,99883.44
2022-09-27T01:43:59.993Z,99895.63
2022-09-27T01:46:40.526Z,99881.81
2022-09-27T01:49:17.530Z,99880.00
2022-09-27T01:52:07.924Z,99881.00
2022-09-27T01:54:51.961Z,99875.91
2022-09-27T01:57:24.142Z,99865.53
2022-09-27T02:00:00.126Z,99871.81
2022-09-27T02:02:52.291Z,99877.25
2022-09-27T02:05:55.697Z,99885.38
2022-09-27T02:08:41.174Z,99891.41
2022-09-27T02:11:15.765Z,99888.16
2022-09-27T02:13:53.347Z,99895.47
2022-09-27T02:16:54.647Z,99890.19
2022-09-27T02:19:45.421Z,99887.72
2022-09-27T02:22:28.898Z,99893.22
2022-09-27T02:25:09.289Z,99888.94
2022-09-27T02:27:43.214Z,99898.03
2022-09-27T02:30:15.129Z,99898.84
2022-09-27T02:32:44.034Z,99896.78
2022-09-27T02:35:17.640Z,99888.25
2022-09-27T02:37:46.954Z,99887.81
2022-09-27T02:40:14.638Z,99880.28
2022-09-27T02:42:43.986Z,99888.13
2022-09-27T02:45:13.100Z,99884.25
2022-09-27T02:47:56.246Z,99885.88
2022-09-27T02:50:38.773Z,99879.16
2022-09-27T02:53:28.983Z,99876.72
2022-09-27T02:56:07.788Z,99869.56
2022-09-27T02:58:59.273Z,99869.56
2022-09-27T03:01:35.339Z,99865.09
2022-09-27T03:04:18.053Z,99857.34
2022-09-27T03:06:47.734Z,99857.53
2022-09-27T03:09:24.759Z,99854.91
2022-09-27T03:11:52.127Z,99856.94
2022-09-27T03:14:19.503Z,99850.00
2022-09-27T03:16:47.149Z,99858.94
2022-09-27T03:19:14.675Z,99852.00
2022-09-27T03:21:42.075Z,99855.66
2022-09-27T03:24:10.911Z,99848.38
2022-09-27T03:26:38.021Z,99854.03
2022-09-27T03:29:05.130Z,99850.75
2022-09-27T03:31:32.089Z,99851.16
2022-09-27T03:33:59.504Z,99857.59
2022-09-27T03:36:26.354Z,99859.81
2022-09-27T03:38:55.026Z,99868.91
2022-09-27T03:41:22.291Z,99863.63
2022-09-27T03:43:49.553Z,99855.09
2022-09-27T03:46:16.802Z,99848.59
2022-09-27T03:48:44.096Z,99852.41
2022-09-27T03:51:13.137Z,99856.84
2022-09-27T03:53:40.275Z,99855.03
2022-09-27T03:56:07.766Z,99855.03
2022-09-27T03:58:35.075Z,99867.41
2022-09-27T04:01:02.496Z,99866.41
2022-09-27T04:03:29.907Z,99852.22
2022-09-27T04:05:57.203Z,99857.28
2022-09-27T04:08:24.588Z,99858.09
2022-09-27T04:10:52.279Z,99862.38
2022-09-27T04:13:19.929Z,99850.84
2022-09-27T04:15:51.872Z,99859.31
2022-09-27T04:18:19.803Z,99859.06
2022-09-27T04:20:47.249Z,99866.16
2022-09-27T04:23:14.152Z,99872.41
2022-09-27T04:25:41.385Z,99862.69
2022-09-27T04:28:08.670Z,99865.50
2022-09-27T04:30:35.950Z,99872.81
2022-09-27T04:33:02.855Z,99867.31
2022-09-27T04:35:48.643Z,99861.06
2022-09-27T04:38:15.883Z,99858.25
2022-09-27T04:40:43.238Z,99860.69
2022-09-27T04:43:10.558Z,99854.22
2022-09-27T04:45:37.896Z,99858.66
2022-09-27T04:48:05.412Z,99858.66
2022-09-27T04:50:35.881Z,99850.75
2022-09-27T04:53:03.862Z,99852.56
2022-09-27T04:55:31.030Z,99848.50
2022-09-27T04:57:58.424Z,99856.25
2022-09-27T05:00:25.994Z,99855.78
2022-09-27T05:02:53.257Z,99842.97
2022-09-27T05:05:20.765Z,99840.34
2022-09-27T05:07:48.249Z,99843.41
2022-09-27T05:10:15.585Z,99835.50
2022-09-27T05:12:43.396Z,99845.22
2022-09-27T05:15:11.088Z,99849.50
2022-09-27T05:17:38.394Z,99844.06
2022-09-27T05:20:06.182Z,99841.03
2022-09-27T05:22:33.485Z,99846.94
2022-09-27T05:25:01.202Z,99846.56
2022-09-27T05:27:28.554Z,99840.09
2022-09-27T05:29:57.166Z,99844.00
2022-09-27T05:32:24.312Z,99838.72
2022-09-27T05:35:03.635Z,99843.41
2022-09-27T05:37:31.869Z,99833.28
2022-09-27T05:39:59.150Z,99832.69
2022-09-27T05:42:26.500Z,99835.31
2022-09-27T05:44:59.635Z,99837.75
2022-09-27T05:47:27.073Z,99831.06
2022-09-27T05:49:55.758Z,99830.88
2022-09-27T05:52:23.345Z,99829.66
2022-09-27T05:55:04.980Z,99815.28
2022-09-27T05:57:32.526Z,99822.81
2022-09-27T06:00:00.920Z,99822.81
2022-09-27T06:02:28.580Z,99817.13
2022-09-27T06:05:05.379Z,99816.94
2022-09-27T06:07:32.866Z,99820.03
2022-09-27T06:10:00.114Z,99821.06
2022-09-27T06:12:27.464Z,99817.03
2022-09-27T06:14:58.335Z,99817.84
2022-09-27T06:17:25.496Z,99814.16
2022-09-27T06:19:52.762Z,99820.91
2022-09-27T06:22:20.051Z,99832.88
2022-09-27T06:24:46.869Z,99829.25
2022-09-27T06:27:13.965Z,99835.34
2022-09-27T06:29:41.210Z,99840.03
2022-09-27T06:32:08.393Z,99818.31
2022-09-27T06:34:37.063Z,99810.41
2022-09-27T06:37:04.432Z,99806.38
2022-09-27T06:39:33.886Z,99809.44
2022-09-27T06:42:01.408Z,99804.78
2022-09-27T06:44:28.714Z,99810.66
2022-09-27T06:46:56.094Z,99798.91
2022-09-27T06:49:23.352Z,99796.28
2022-09-27T06:51:51.213Z,99796.28
2022-09-27T06:54:19.262Z,99798.63
2022-09-27T06:56:53.747Z,99795.22
2022-09-27T06:59:39.345Z,99791.59
2022-09-27T07:02:06.987Z,99792.63
2022-09-27T07:04:45.161Z,99802.34
2022-09-27T07:07:12.631Z,99809.19
2022-09-27T07:09:40.648Z,99814.88
2022-09-27T07:12:07.891Z,99813.06
2022-09-27T07:14:36.076Z,99814.47
2022-09-27T07:17:03.966Z,99819.16
2022-09-27T07:19:31.330Z,99820.63
2022-09-27T07:21:58.797Z,99817.13
2022-09-27T07:24:26.059Z,99813.69
2022-09-27T07:26:53.293Z,99821.25
2022-09-27T07:29:20.439Z,99819.25
2022-09-27T07:31:47.846Z,99817.19
2022-09-27T07:34:18.622Z,99814.97
2022-09-27T07:36:45.892Z,99809.69
2022-09-27T07:39:13.097Z,99804.88
2022-09-27T07:41:40.896Z,99805.47
2022-09-27T07:44:08.410Z,99799.34
2022-09-27T07:46:35.249Z,99801.22
2022-09-27T07:49:04.742Z,99799.19
2022-09-27T07:51:31.663Z,99789.84
2022-09-27T07:53:58.582Z,99794.94
2022-09-27T07:56:25.424Z,99785.59
2022-09-27T07:58:52.210Z,99784.13
2022-09-27T08:01:19.496Z,99783.97
2022-09-27T08:03:46.429Z,99781.53
2022-09-27T08:06:13.413Z,99782.59
2022-09-27T08:08:41.748Z,99782.38
2022-09-27T08:11:16.755Z,99778.53
2022-09-27T08:13:44.830Z,99787.47
2022-09-27T08:16:18.526Z,99783.81
2022-09-27T08:18:45.448Z,99783.41
2022-09-27T08:21:13.301Z,99773.06
2022-09-27T08:23:40.347Z,99769.41
2022-09-27T08:26:07.198Z,99768.00
2022-09-27T08:28:34.028Z,99763.94
2022-09-27T08:31:01.127Z,99767.84
2022-09-27T08:33:32.147Z,99759.09
2022-09-27T08:36:02.073Z,99761.50
2022-09-27T08:38:29.361Z,99763.97
2022-09-27T08:41:12.830Z,99764.59
2022-09-27T08:44:05.575Z,99757.06
2022-09-27T08:46:54.310Z,99767.22
2022-09-27T08:49:41.774Z,99762.75
2022-09-27T08:52:30.582Z,99758.09
2022-09-27T08:55:01.908Z,99753.44
2022-09-27T08:57:28.882Z,99755.47
2022-09-27T09:00:06.265Z,99749.78
2022-09-27T09:02:35.068Z,99753.63
2022-09-27T09:05:13.419Z,99758.31
2022-09-27T09:08:31.030Z,99744.72
2022-09-27T09:11:49.183Z,99750.81
2022-09-27T09:14:30.986Z,99746.34
2022-09-27T09:17:43.918Z,99742.88
2022-09-27T09:20:20.186Z,99752.44
2022-09-27T09:23:03.822Z,99746.34
2022-09-27T09:25:46.580Z,99744.13
2022-09-27T09:28:28.955Z,99741.88
2022-09-27T09:31:25.487Z,99736.78
2022-09-27T09:34:05.773Z,99741.69
2022-09-27T09:36:47.892Z,99735.97
2022-09-27T09:39:23.863Z,99738.81
2022-09-27T09:42:09.505Z,99736.56
2022-09-27T09:44:46.212Z,99738.59
2022-09-27T09:47:28.057Z,99734.75
2022-09-27T09:50:01.445Z,99732.31
2022-09-27T09:52:39.906Z,99731.94
2022-09-27T09:55:19.358Z,99733.16
2022-09-27T09:57:56.547Z,99726.63
2022-09-27T10:00:24.085Z,99725.22
2022-09-27T10:02:54.949Z,99722.56
2022-09-27T10:05:24.711Z,99723.16
2022-09-27T10:07:55.050Z,99713.19
2022-09-27T10:10:22.401Z,99716.44
2022-09-27T10:12:50.162Z,99710.75
2022-09-27T10:15:20.968Z,99712.16
2022-09-27T10:17:51.301Z,99703.19
2022-09-27T10:20:36.113Z,99695.63
2022-09-27T10:23:25.384Z,99689.53
2022-09-27T10:25:56.886Z,99682.19
2022-09-27T10:28:34.476Z,99680.94
2022-09-27T10:31:04.294Z,99678.09
2022-09-27T10:33:32.063Z,99676.88
2022-09-27T10:36:01.132Z,99678.91
2022-09-27T10:38:36.135Z,99668.34
2022-09-27T10:41:26.211Z,99675.25
2022-09-27T10:43:53.081Z,99675.25
2022-09-27T10:46:30.587Z,99676.28
2022-09-27T10:49:21.170Z,99666.13
2022-09-27T10:51:53.677Z,99676.97
2022-09-27T10:54:29.456Z,99662.72
2022-09-27T10:57:05.337Z,99664.53
2022-09-27T10:59:40.771Z,99664.97
2022-09-27T11:02:21.076Z,99661.28
2022-09-27T11:05:15.328Z,99656.19
2022-09-27T11:07:57.691Z,99650.50
2022-09-27T11:10:36.262Z,99657.00
2022-09-27T11:13:19.023Z,99673.06
2022-09-27T11:15:45.854Z,99684.69
2022-09-27T11:18:27.813Z,99683.88
2022-09-27T11:21:19.123Z,99677.97
2022-09-27T11:24:08.365Z,99667.00
2022-09-27T11:27:05.994Z,99662.09
2022-09-27T11:30:03.599Z,99652.56
2022-09-27T11:32:55.528Z,99652.56
2022-09-27T11:35:50.225Z,99653.97
2022-09-27T11:38:52.116Z,99646.66
2022-09-27T11:41:33.591Z,99655.81
2022-09-27T11:44:19.990Z,99637.91
2022-09-27T11:47:21.553Z,99645.03
2022-09-27T11:50:25.982Z,99637.69
2022-09-27T11:53:19.327Z,99641.53
2022-09-27T11:55:53.397Z,99634.63
2022-09-27T11:58:39.937Z,99634.03
2022-09-27T12:01:39.281Z,99637.69
2022-09-27T12:04:12.192Z,99631.78
2022-09-27T12:06:47.169Z,99625.28
2022-09-27T12:09:23.161Z,99616.91
2022-09-27T12:11:55.038Z,99621.19
2022-09-27T12:14:45.845Z,99600.41
2022-09-27T12:17:18.702Z,99604.47
2022-09-27T12:19:50.639Z,99603.44
2022-09-27T12:22:40.278Z,99598.59
2022-09-27T12:25:20.537Z,99591.66
2022-09-27T12:27:53.999Z,99597.13
2022-09-27T12:30:20.789Z,99592.28
2022-09-27T12:33:15.543Z,99601.44
2022-09-27T12:35:55.308Z,99591.44
2022-09-27T12:38:22.053Z,99587.78
2022-09-27T12:40:53.742Z,99591.06
2022-09-27T12:43:20.571Z,99580.84
2022-09-27T12:46:24.577Z,99585.31
2022-09-27T12:49:05.808Z,99590.16
2022-09-27T12:51:41.710Z,99584.44
2022-09-27T12:54:35.029Z,99598.91
2022-09-27T12:57:20.583Z,99591.75
2022-09-27T13:00:25.401Z,99597.47
2022-09-27T13:03:15.423Z,99598.28
2022-09-27T13:06:24.584Z,99602.16
2022-09-27T13:09:09.940Z,99606.69
2022-09-27T13:12:02.056Z,99608.72
2022-09-27T13:14:34.768Z,99602.03
2022-09-27T13:17:01.799Z,99602.44
2022-09-27T13:19:40.023Z,99605.50
2022-09-27T13:22:31.444Z,99589.03
2022-09-27T13:25:03.791Z,99583.16
2022-09-27T13:27:30.832Z,99578.09
2022-09-27T13:30:12.784Z,99581.75
2022-09-27T13:32:41.113Z,99579.31
2022-09-27T13:35:24.534Z,99577.47
2022-09-27T13:38:01.303Z,99573.00
2022-09-27T13:40:37.175Z,99558.75
2022-09-27T13:43:22.104Z,99547.16
2022-09-27T13:46:08.051Z,99544.09
2022-09-27T13:48:37.925Z,99545.09
2022-09-27T13:51:25.269Z,99540.44
2022-09-27T13:54:10.285Z,99533.91
2022-09-27T13:56:38.362Z,99535.34
2022-09-27T13:59:10.606Z,99533.09
2022-09-27T14:01:42.806Z,99534.09
2022-09-27T14:04:28.594Z,99549.13
2022-09-27T14:07:01.980Z,99549.13
2022-09-27T14:09:34.963Z,99537.31
2022-09-27T14:12:16.690Z,99537.28
2022-09-27T14:15:00.818Z,99535.78
2022-09-27T14:17:27.986Z,99530.84
2022-09-27T14:19:54.843Z,99529.59
2022-09-27T14:22:23.590Z,99521.59
2022-09-27T14:25:16.847Z,99525.03
2022-09-27T14:27:43.597Z,99529.50
2022-09-27T14:30:22.609Z,99524.19
2022-09-27T14:32:58.710Z,99531.69
2022-09-27T14:35:45.821Z,99517.81
2022-09-27T14:38:46.700Z,99514.97
2022-09-27T14:41:08.607Z,99515.94
2022-09-27T14:43:37.717Z,99509.38
2022-09-27T14:46:07.360Z,99505.88
2022-09-27T14:48:37.489Z,99505.47
2022-09-27T14:51:14.371Z,99505.63
2022-09-27T14:53:45.438Z,99499.69
2022-09-27T14:56:27.674Z,99509.63
2022-09-27T14:59:02.684Z,99497.19
2022-09-27T15:01:30.615Z,99495.34
2022-09-27T15:04:05.983Z,99499.59
2022-09-27T15:06:35.702Z,99502.69
2022-09-27T15:09:04.685Z,99523.91
2022-09-27T15:11:33.473Z,99535.72
2022-09-27T15:14:02.285Z,99535.19
2022-09-27T15:16:31.642Z,99532.25
2022-09-27T15:19:27.096Z,99537.47
2022-09-27T15:21:54.558Z,99532.84
2022-09-27T15:24:47.796Z,99528.44
2022-09-27T15:27:18.342Z,99530.50
2022-09-27T15:29:54.928Z,99530.94
2022-09-27T15:32:27.527Z,99525.09
2022-09-27T15:35:07.701Z,99518.97
2022-09-27T15:37:39.392Z,99517.34
2022-09-27T15:40:18.798Z,99517.16
2022-09-27T15:42:57.663Z,99520.22
2022-09-27T15:45:33.941Z,99521.03
2022-09-27T15:48:27.603Z,99515.53
2022-09-27T15:50:54.435Z,99514.69
2022-09-27T15:53:33.535Z,99510.22
2022-09-27T15:56:02.206Z,99505.16
2022-09-27T15:58:29.834Z,99504.13
2022-09-27T16:00:59.523Z,99503.53
2022-09-27T16:03:27.289Z,99503.31
2022-09-27T16:05:56.383Z,99498.44
2022-09-27T16:08:24.325Z,99504.53
2022-09-27T16:10:53.552Z,99498.00
2022-09-27T16:13:20.414Z,99504.47
2022-09-27T16:15:48.027Z,99502.66
2022-09-27T16:18:15.003Z,99505.28
2022-09-27T16:20:42.723Z,99498.38
2022-09-27T16:23:09.777Z,99504.72
2022-09-27T16:25:36.695Z,99493.91
2022-09-27T16:28:05.564Z,99498.97
2022-09-27T16:30:33.471Z,99494.50
2022-09-27T16:33:01.529Z,99495.69
2022-09-27T16:35:28.708Z,99507.09
2022-09-27T16:37:55.543Z,99504.66
2022-09-27T16:40:25.351Z,99497.53
2022-09-27T16:42:52.661Z,99507.31
2022-09-27T16:45:19.952Z,99501.44
2022-09-27T16:47:47.748Z,99496.94
2022-09-27T16:50:34.366Z,99504.06
2022-09-27T16:53:01.835Z,99505.28
2022-09-27T16:55:29.772Z,99506.09
2022-09-27T16:58:00.310Z,99502.66
2022-09-27T17:00:28.072Z,99497.34
2022-09-27T17:02:55.142Z,99500.81
2022-09-27T17:05:28.518Z,99491.03
2022-09-27T17:07:55.537Z,99492.06
2022-09-27T17:10:23.625Z,99493.50
2022-09-27T17:12:50.941Z,99487.38
2022-09-27T17:15:18.308Z,99495.13
2022-09-27T17:17:49.880Z,99490.84
2022-09-27T17:20:18.043Z,99486.75
2022-09-27T17:22:45.200Z,99483.09
2022-09-27T17:25:12.211Z,99478.41
2022-09-27T17:27:39.193Z,99481.28
2022-09-27T17:30:07.250Z,99479.25
2022-09-27T17:32:35.126Z,99478.66
2022-09-27T17:35:09.953Z,99471.16
2022-09-27T17:37:37.156Z,99478.69
2022-09-27T17:40:06.006Z,99485.00
2022-09-27T17:42:34.550Z,99477.50
2022-09-27T17:45:04.665Z,99479.53
2022-09-27T17:47:50.084Z,99480.75
2022-09-27T17:50:27.424Z,99485.00
2022-09-27T17:52:55.313Z,99486.84
2022-09-27T17:55:23.285Z,99488.91
2022-09-27T17:57:50.827Z,99486.84
2022-09-27T18:00:21.327Z,99483.38
2022-09-27T18:02:49.249Z,99483.63
2022-09-27T18:05:18.629Z,99484.84
2022-09-27T18:07:45.547Z,99499.88
2022-09-27T18:10:12.535Z,99499.88
2022-09-27T18:12:59.374Z,99500.94
2022-09-27T18:15:26.865Z,99495.84
2022-09-27T18:17:57.945Z,99494.22
2022-09-27T18:20:27.955Z,99492.81
2022-09-27T18:22:54.962Z,99506.44
2022-09-27T18:25:25.368Z,99495.03
2022-09-27T18:27:53.215Z,99488.34
2022-09-27T18:30:20.054Z,99492.44
2022-09-27T18:32:46.906Z,99490.81
2022-09-27T18:35:15.206Z,99499.13
2022-09-27T18:37:47.061Z,99493.66
2022-09-27T18:40:14.890Z,99490.44
2022-09-27T18:42:41.964Z,99486.34
2022-09-27T18:45:09.261Z,99495.72
2022-09-27T18:47:36.312Z,99488.84
2022-09-27T18:50:03.381Z,99494.91
2022-09-27T18:52:33.581Z,99502.84
2022-09-27T18:55:06.220Z,99495.53
2022-09-27T18:57:34.239Z,99496.56
2022-09-27T19:00:04.559Z,99497.59
2022-09-27T19:09:41.933Z,99505.72
2022-09-27T19:12:08.910Z,99494.72
2022-09-27T19:14:35.749Z,99496.56
2022-09-27T19:17:02.790Z,99494.94
2022-09-27T19:19:29.694Z,99500.22
2022-09-27T19:21:56.862Z,99501.06
2022-09-27T19:24:23.845Z,99494.53
2022-09-27T19:26:56.329Z,99494.53
2022-09-27T19:29:23.209Z,99493.94
2022-09-27T19:31:50.141Z,99501.88
2022-09-27T19:34:17.098Z,99496.16
2022-09-27T19:36:44.347Z,99500.84
2022-09-27T19:39:22.825Z,99505.53
2022-09-27T19:41:50.480Z,99510.00
2022-09-27T19:44:17.868Z,99518.94
2022-09-27T19:46:46.336Z,99516.50
2022-09-27T19:49:13.647Z,99523.81
2022-09-27T19:51:40.990Z,99523.19
2022-09-27T19:54:11.014Z,99532.78
2022-09-27T19:56:38.300Z,99538.47
2022-09-27T19:59:14.670Z,99533.78
2022-09-27T20:01:42.342Z,99534.22
2022-09-27T20:04:13.292Z,99527.28
2022-09-27T20:06:40.851Z,99530.31
2022-09-27T20:09:08.223Z,99533.19
2022-09-27T20:11:36.174Z,99529.72
2022-09-27T20:14:03.456Z,99532.56
2022-09-27T20:16:32.314Z,99526.47
2022-09-27T20:19:01.346Z,99527.69
2022-09-27T20:21:34.737Z,99525.06
2022-09-27T20:24:03.143Z,99529.34
2022-09-27T20:26:32.718Z,99526.88
2022-09-27T20:29:02.600Z,99530.72
2022-09-27T20:31:37.165Z,99530.94
2022-09-27T20:34:07.242Z,99533.78
2022-09-27T20:36:39.679Z,99538.25
2022-09-27T20:39:10.987Z,99541.09
2022-09-27T20:41:43.187Z,99544.75
2022-09-27T20:44:12.497Z,99533.56
2022-09-27T20:46:40.547Z,99531.13
2022-09-27T20:49:09.899Z,99536.41
2022-09-27T20:51:39.539Z,99528.28
2022-09-27T20:54:10.460Z,99531.56
2022-09-27T20:56:48.269Z,99530.13
2022-09-27T20:59:19.048Z,99532.75
2022-09-27T21:01:49.299Z,99523.81
2022-09-27T21:04:17.875Z,99527.47
2022-09-27T21:06:45.196Z,99523.19
2022-09-27T21:09:18.830Z,99532.31
2022-09-27T21:11:59.886Z,99516.66
2022-09-27T21:14:27.532Z,99515.44
2022-09-27T21:16:55.390Z,99508.53
2022-09-27T21:19:23.896Z,99519.09
2022-09-27T21:21:54.043Z,99506.91
2022-09-27T21:24:21.312Z,99502.84
2022-09-27T21:26:48.237Z,99504.44
2022-09-27T21:29:15.211Z,99505.88
2022-09-27T21:31:43.234Z,99512.16
2022-09-27T21:34:10.230Z,99505.44
2022-09-27T21:36:38.838Z,99505.81
2022-09-27T21:39:08.844Z,99504.59
2022-09-27T21:41:36.197Z,99495.66
2022-09-27T21:44:04.762Z,99494.84
2022-09-27T21:46:31.737Z,99510.66
2022-09-27T21:49:00.130Z,99502.34
2022-09-27T21:51:29.643Z,99502.53
2022-09-27T21:54:01.608Z,99508.63
2022-09-27T21:56:30.856Z,99511.50
2022-09-27T21:58:58.004Z,99510.03
2022-09-27T22:01:31.216Z,99511.50
2022-09-27T22:03:58.982Z,99510.47
2022-09-27T22:06:31.514Z,99506.22
2022-09-27T22:09:00.296Z,99506.41
2022-09-27T22:11:30.233Z,99512.09
2022-09-27T22:13:57.606Z,99506.81
2022-09-27T22:16:27.095Z,99507.00
2022-09-27T22:18:55.645Z,99499.28
2022-09-27T22:21:26.556Z,99504.97
2022-09-27T22:23:58.266Z,99502.09
2022-09-27T22:26:27.997Z,99504.75
2022-09-27T22:28:55.559Z,99509.59
2022-09-27T22:31:23.379Z,99511.44
2022-09-27T22:34:16.313Z,99512.25
2022-09-27T22:36:43.919Z,99515.06
2022-09-27T22:39:10.782Z,99516.09
2022-09-27T22:41:43.296Z,99521.97
2022-09-27T22:44:13.391Z,99509.78
2022-09-27T22:46:44.584Z,99519.53
2022-09-27T22:49:16.255Z,99513.03
2022-09-27T22:51:43.157Z,99520.13
2022-09-27T22:54:09.936Z,99520.31
2022-09-27T22:56:36.777Z,99518.31
2022-09-27T22:59:03.648Z,99524.81
2022-09-27T23:01:31.661Z,99515.25
2022-09-27T23:03:58.908Z,99516.06
2022-09-27T23:06:25.786Z,99523.16
2022-09-27T23:08:54.035Z,99518.72
2022-09-27T23:11:23.114Z,99517.91
2022-09-27T23:13:51.187Z,99519.13
2022-09-27T23:16:21.355Z,99518.47
2022-09-27T23:18:48.137Z,99522.75
2022-09-27T23:21:16.243Z,99513.03
2022-09-27T23:23:45.890Z,99522.13
2022-09-27T23:26:15.336Z,99521.94
2022-09-27T23:28:42.923Z,99523.75
2022-09-27T23:31:14.914Z,99518.47
2022-09-27T23:33:43.975Z,99518.69
2022-09-27T23:36:17.658Z,99512.59
2022-09-27T23:38:46.681Z,99518.06
2022-09-27T23:41:15.164Z,99516.63
2022-09-27T23:43:42.232Z,99514.41
2022-09-27T23:46:09.424Z,99511.31
2022-09-27T23:48:37.296Z,99505.44
2022-09-27T23:51:06.319Z,99514.34
2022-09-27T23:53:33.377Z,99513.13
2022-09-27T23:56:02.900Z,99515.94
2022-09-27T23:58:43.478Z,99526.69
